Terminal Aerodrome Forecast
Issued by NWS Charleston, WV

Current Version | Previous Version | Graphics & Text | Print | Product List | Glossary On
Versions: 1 2 3 4 5 6 7 8 9 10 11 12 13 14 15 16 17 18 19 20 21 22 23 24 25
000
FTUS41 KRLX 190538
TAFHTS
TAF
KHTS 190538Z 1906/2006 28017G28KT P6SM -SHRA OVC020
      TEMPO 1906/1908 OVC015
     FM190800 28012G23KT P6SM OVC020
     FM191100 28010G19KT P6SM OVC025
     FM192000 27010G18KT P6SM BKN035
     FM200000 28009KT P6SM SCT050=

USA.gov is the U.S. government's official web portal to all federal, state and local government web resources and services.